sensor_id;sensor_type;location;lat;lon;timestamp;P1;durP1;ratioP1;P2;durP2;ratioP2
739;SDS011;354;42.694;23.336;2023-05-07T01:35:48;21.40;;;17.90;;
739;SDS011;354;42.694;23.336;2023-05-07T01:42:57;19.53;;;16.33;;
739;SDS011;354;42.694;23.336;2023-05-07T02:15:56;15.83;;;14.43;;
739;SDS011;354;42.694;23.336;2023-05-07T02:19:51;15.33;;;13.93;;
739;SDS011;354;42.694;23.336;2023-05-07T02:34:19;16.47;;;14.87;;
739;SDS011;354;42.694;23.336;2023-05-07T02:37:49;17.20;;;15.60;;
739;SDS011;354;42.694;23.336;2023-05-07T02:41:39;17.23;;;15.63;;
739;SDS011;354;42.694;23.336;2023-05-07T02:45:25;18.10;;;15.30;;
739;SDS011;354;42.694;23.336;2023-05-07T02:52:37;18.43;;;16.57;;
739;SDS011;354;42.694;23.336;2023-05-07T05:42:03;14.87;;;13.37;;
739;SDS011;354;42.694;23.336;2023-05-07T05:45:34;14.00;;;12.67;;
739;SDS011;354;42.694;23.336;2023-05-07T05:49:15;14.17;;;12.77;;
739;SDS011;354;42.694;23.336;2023-05-07T05:52:51;14.88;;;12.38;;
739;SDS011;354;42.694;23.336;2023-05-07T05:56:16;14.32;;;12.93;;
739;SDS011;354;42.694;23.336;2023-05-07T06:36:09;13.70;;;12.30;;
739;SDS011;354;42.694;23.336;2023-05-07T09:50:51;7.97;;;7.20;;
739;SDS011;354;42.694;23.336;2023-05-07T18:19:35;8.47;;;7.70;;
739;SDS011;354;42.694;23.336;2023-05-07T18:23:03;8.80;;;7.03;;
739;SDS011;354;42.694;23.336;2023-05-07T18:26:33;9.80;;;9.00;;
739;SDS011;354;42.694;23.336;2023-05-07T18:30:01;10.80;;;9.70;;
739;SDS011;354;42.694;23.336;2023-05-07T18:33:25;7.83;;;7.23;;
739;SDS011;354;42.694;23.336;2023-05-07T18:37:01;8.93;;;8.23;;
739;SDS011;354;42.694;23.336;2023-05-07T18:40:43;8.87;;;8.07;;
739;SDS011;354;42.694;23.336;2023-05-07T18:47:53;8.83;;;8.13;;
739;SDS011;354;42.694;23.336;2023-05-07T18:54:51;9.27;;;8.47;;
739;SDS011;354;42.694;23.336;2023-05-07T20:33:24;9.97;;;9.27;;
739;SDS011;354;42.694;23.336;2023-05-07T20:37:04;11.43;;;7.87;;
739;SDS011;354;42.694;23.336;2023-05-07T20:40:43;8.87;;;8.07;;
739;SDS011;354;42.694;23.336;2023-05-07T20:44:21;11.00;;;9.27;;
739;SDS011;354;42.694;23.336;2023-05-07T20:48:16;8.73;;;7.93;;
739;SDS011;354;42.694;23.336;2023-05-07T20:51:46;9.40;;;7.93;;
739;SDS011;354;42.694;23.336;2023-05-07T20:58:53;9.57;;;8.77;;
739;SDS011;354;42.694;23.336;2023-05-07T21:02:21;8.57;;;7.77;;
739;SDS011;354;42.694;23.336;2023-05-07T21:06:04;8.13;;;7.40;;
739;SDS011;354;42.694;23.336;2023-05-07T21:09:43;9.87;;;8.67;;
739;SDS011;354;42.694;23.336;2023-05-07T21:13:15;8.90;;;7.80;;
739;SDS011;354;42.694;23.336;2023-05-07T21:16:52;9.67;;;7.40;;
739;SDS011;354;42.694;23.336;2023-05-07T21:20:18;15.77;;;14.13;;
739;SDS011;354;42.694;23.336;2023-05-07T21:45:52;7.00;;;6.40;;
739;SDS011;354;42.694;23.336;2023-05-07T21:50:00;8.57;;;7.87;;
739;SDS011;354;42.694;23.336;2023-05-07T21:53:51;7.30;;;6.77;;
739;SDS011;354;42.694;23.336;2023-05-07T21:57:31;7.47;;;6.50;;
739;SDS011;354;42.694;23.336;2023-05-07T22:01:15;6.90;;;6.40;;
739;SDS011;354;42.694;23.336;2023-05-07T22:12:05;7.90;;;5.87;;
739;SDS011;354;42.694;23.336;2023-05-07T22:15:49;5.77;;;5.37;;
739;SDS011;354;42.694;23.336;2023-05-07T22:19:32;6.03;;;5.53;;
739;SDS011;354;42.694;23.336;2023-05-07T22:23:17;6.20;;;5.60;;
739;SDS011;354;42.694;23.336;2023-05-07T22:26:48;6.40;;;5.80;;
739;SDS011;354;42.694;23.336;2023-05-07T22:30:35;5.70;;;5.17;;
739;SDS011;354;42.694;23.336;2023-05-07T22:56:11;6.60;;;6.00;;
739;SDS011;354;42.694;23.336;2023-05-07T22:59:57;9.07;;;8.13;;
739;SDS011;354;42.694;23.336;2023-05-07T23:03:29;5.83;;;5.37;;
739;SDS011;354;42.694;23.336;2023-05-07T23:07:14;7.10;;;4.80;;
739;SDS011;354;42.694;23.336;2023-05-07T23:10:56;6.67;;;5.57;;
739;SDS011;354;42.694;23.336;2023-05-07T23:14:29;6.33;;;5.83;;
739;SDS011;354;42.694;23.336;2023-05-07T23:21:41;6.60;;;6.00;;
739;SDS011;354;42.694;23.336;2023-05-07T23:25:14;5.50;;;4.93;;
739;SDS011;354;42.694;23.336;2023-05-07T23:28:44;5.73;;;5.23;;
739;SDS011;354;42.694;23.336;2023-05-07T23:32:25;5.23;;;4.80;;
739;SDS011;354;42.694;23.336;2023-05-07T23:47:27;5.70;;;4.97;;
739;SDS011;354;42.694;23.336;2023-05-07T23:51:07;5.00;;;4.50;;
739;SDS011;354;42.694;23.336;2023-05-07T23:54:41;5.30;;;4.70;;
